createdAt,value
2018-10-05T00:06:14.486Z,7.30
2018-10-05T00:17:17.466Z,7.30
2018-10-05T00:28:17.837Z,7.38
2018-10-05T00:39:20.745Z,7.20
2018-10-05T00:50:23.868Z,7.20
2018-10-05T01:01:26.058Z,7.09
2018-10-05T01:12:25.351Z,6.87
2018-10-05T01:23:29.505Z,6.91
2018-10-05T01:34:30.238Z,6.68
2018-10-05T01:45:34.238Z,6.99
2018-10-05T01:56:33.217Z,6.50
2018-10-05T02:07:31.663Z,6.62
2018-10-05T02:18:32.361Z,6.47
2018-10-05T02:29:32.101Z,6.55
2018-10-05T02:40:30.818Z,6.26
2018-10-05T02:51:31.933Z,6.17
2018-10-05T03:02:31.561Z,5.89
2018-10-05T03:13:34.347Z,6.07
2018-10-05T03:24:36.442Z,6.08
2018-10-05T03:35:39.389Z,6.32
2018-10-05T03:46:42.244Z,6.08
2018-10-05T03:57:44.662Z,6.15
2018-10-05T04:08:47.260Z,6.11
2018-10-05T04:19:47.966Z,5.95
2018-10-05T04:30:49.724Z,5.78
2018-10-05T04:41:52.157Z,5.71
2018-10-05T04:52:54.578Z,5.71
2018-10-05T05:03:55.597Z,5.74
2018-10-05T05:14:57.804Z,5.81
2018-10-05T05:26:00.906Z,5.86
2018-10-05T05:37:02.159Z,5.92
2018-10-05T05:48:03.739Z,6.18
2018-10-05T05:59:06.505Z,6.55
2018-10-05T06:10:08.329Z,6.93
2018-10-05T06:21:10.940Z,7.45
2018-10-05T06:32:13.338Z,7.79
2018-10-05T06:43:14.299Z,8.39
2018-10-05T06:54:17.248Z,8.97
2018-10-05T07:05:20.098Z,9.38
2018-10-05T07:16:23.607Z,9.80
2018-10-05T07:27:25.732Z,10.34
2018-10-05T07:38:28.620Z,11.02
2018-10-05T07:49:31.921Z,11.61
2018-10-05T08:00:35.063Z,12.18
2018-10-05T08:11:37.533Z,12.67
2018-10-05T08:22:40.570Z,13.03
2018-10-05T08:33:44.070Z,13.59
2018-10-05T08:44:46.146Z,14.09
2018-10-05T08:55:48.904Z,14.35
2018-10-05T09:06:51.222Z,15.45
2018-10-05T09:17:53.614Z,16.03
2018-10-05T09:28:57.062Z,16.56
2018-10-05T09:39:59.369Z,17.02
2018-10-05T09:51:02.395Z,17.32
2018-10-05T10:02:05.042Z,17.87
2018-10-05T10:13:08.064Z,18.28
2018-10-05T10:24:10.363Z,17.89
2018-10-05T10:35:10.386Z,18.29
2018-10-05T10:46:12.691Z,18.50
2018-10-05T10:57:13.296Z,20.13
2018-10-05T11:08:14.046Z,19.79
2018-10-05T11:19:14.006Z,19.42
2018-10-05T11:30:15.713Z,19.46
2018-10-05T11:41:13.654Z,19.63
2018-10-05T11:52:16.195Z,20.18
2018-10-05T12:03:17.488Z,20.20
2018-10-05T12:14:18.569Z,20.35
2018-10-05T12:25:11.086Z,20.31
2018-10-05T12:36:04.991Z,20.35
2018-10-05T12:47:06.142Z,21.24
2018-10-05T12:58:05.698Z,20.87
2018-10-05T13:09:05.796Z,21.66
2018-10-05T13:20:03.505Z,21.61
2018-10-05T13:31:06.734Z,23.43
2018-10-05T13:42:10.151Z,22.07
2018-10-05T13:53:08.813Z,21.97
2018-10-05T14:04:03.308Z,20.68
2018-10-05T14:15:00.959Z,20.01
2018-10-05T14:26:00.898Z,19.46
2018-10-05T14:37:02.258Z,19.46
2018-10-05T14:48:03.499Z,18.77
2018-10-05T14:58:59.077Z,18.62
2018-10-05T15:09:48.698Z,18.57
2018-10-05T15:20:47.372Z,18.00
2018-10-05T15:31:49.434Z,18.07
2018-10-05T15:42:47.210Z,17.79
2018-10-05T15:53:40.375Z,17.30
2018-10-05T16:04:40.794Z,16.71
2018-10-05T16:15:36.032Z,15.83
2018-10-05T16:26:33.687Z,15.15
2018-10-05T16:37:34.093Z,14.41
2018-10-05T16:48:30.582Z,13.68
2018-10-05T16:59:31.108Z,13.24
2018-10-05T17:10:31.668Z,12.82
2018-10-05T17:21:32.770Z,12.46
2018-10-05T17:32:32.179Z,12.16
2018-10-05T17:43:33.768Z,11.86
2018-10-05T17:54:30.695Z,11.65
2018-10-05T18:05:32.399Z,11.23
2018-10-05T18:16:34.537Z,11.08
2018-10-05T18:27:33.677Z,10.84
2018-10-05T18:38:33.436Z,10.56
2018-10-05T18:49:31.988Z,10.34
2018-10-05T19:00:31.589Z,10.19
2018-10-05T19:11:28.530Z,9.93
2018-10-05T19:22:28.682Z,9.92
2018-10-05T19:33:27.700Z,9.72
2018-10-05T19:44:27.986Z,9.52
2018-10-05T19:55:27.904Z,9.31
2018-10-05T20:06:26.213Z,9.24
2018-10-05T20:17:24.624Z,9.10
2018-10-05T20:28:24.899Z,8.98
2018-10-05T20:39:26.093Z,9.05
2018-10-05T20:50:24.661Z,8.88
2018-10-05T21:01:26.158Z,8.75
2018-10-05T21:12:24.165Z,8.55
2018-10-05T21:23:23.686Z,8.51
2018-10-05T21:34:19.035Z,8.52
2018-10-05T21:45:19.159Z,8.30
2018-10-05T21:56:18.253Z,8.29
2018-10-05T22:07:17.672Z,8.17
2018-10-05T22:18:19.987Z,8.00
2018-10-05T22:29:22.017Z,8.09
2018-10-05T22:40:22.759Z,7.93
2018-10-05T22:51:21.450Z,8.01
2018-10-05T23:02:21.760Z,7.86
2018-10-05T23:13:21.020Z,7.78
2018-10-05T23:24:21.962Z,7.91
2018-10-05T23:35:23.035Z,7.75
2018-10-05T23:46:24.093Z,7.91
2018-10-05T23:57:25.443Z,7.88
